createdAt,value
2022-08-12T00:00:54.337Z,82.90
2022-08-12T00:03:39.733Z,83.00
2022-08-12T00:06:26.490Z,82.70
2022-08-12T00:09:12.546Z,83.00
2022-08-12T00:11:57.993Z,83.50
2022-08-12T00:14:43.412Z,84.10
2022-08-12T00:17:29.292Z,83.40
2022-08-12T00:20:14.775Z,83.50
2022-08-12T00:23:01.277Z,83.80
2022-08-12T00:26:20.494Z,83.80
2022-08-12T00:29:04.677Z,83.90
2022-08-12T00:31:49.974Z,84.10
2022-08-12T00:34:36.568Z,84.50
2022-08-12T00:37:23.866Z,84.40
2022-08-12T00:40:12.004Z,84.40
2022-08-12T00:42:41.822Z,84.60
2022-08-12T00:45:10.417Z,85.00
2022-08-12T00:47:39.178Z,85.10
2022-08-12T00:50:07.186Z,85.30
2022-08-12T00:52:35.904Z,85.50
2022-08-12T00:55:05.532Z,85.70
2022-08-12T00:57:37.143Z,85.70
2022-08-12T01:00:13.847Z,86.10
2022-08-12T01:02:46.359Z,86.00
2022-08-12T01:05:34.704Z,86.10
2022-08-12T01:08:21.092Z,86.60
2022-08-12T01:11:08.041Z,86.70
2022-08-12T01:13:39.461Z,87.20
2022-08-12T01:16:09.594Z,87.40
2022-08-12T01:18:39.873Z,87.40
2022-08-12T01:21:07.066Z,88.00
2022-08-12T01:24:23.051Z,88.00
2022-08-12T01:26:56.770Z,88.10
2022-08-12T01:29:28.594Z,88.40
2022-08-12T01:32:05.452Z,88.10
2022-08-12T01:34:38.868Z,88.90
2022-08-12T01:37:10.063Z,89.00
2022-08-12T01:40:35.796Z,89.40
2022-08-12T01:42:45.098Z,89.40
2022-08-12T01:45:13.212Z,88.70
2022-08-12T01:47:58.568Z,89.30
2022-08-12T01:51:00.307Z,89.40
2022-08-12T01:53:59.573Z,89.90
2022-08-12T01:56:42.108Z,90.10
2022-08-12T01:59:30.414Z,90.10
2022-08-12T02:01:59.872Z,90.00
2022-08-12T02:05:02.906Z,90.00
2022-08-12T02:08:03.693Z,90.10
2022-08-12T02:11:10.403Z,90.30
2022-08-12T02:13:50.079Z,90.80
2022-08-12T02:16:28.104Z,91.10
2022-08-12T02:19:03.420Z,91.20
2022-08-12T02:22:01.934Z,91.40
2022-08-12T02:24:34.598Z,91.50
2022-08-12T02:27:02.822Z,91.40
2022-08-12T02:29:30.458Z,91.30
2022-08-12T02:31:59.338Z,91.50
2022-08-12T02:34:28.128Z,91.30
2022-08-12T02:37:02.672Z,91.30
2022-08-12T02:39:34.165Z,91.60
2022-08-12T02:42:04.685Z,92.00
2022-08-12T02:44:38.176Z,92.00
2022-08-12T02:47:07.620Z,92.20
2022-08-12T02:49:58.934Z,92.50
2022-08-12T02:52:27.632Z,92.80
2022-08-12T02:55:01.669Z,93.00
2022-08-12T02:57:31.846Z,93.10
2022-08-12T03:00:04.336Z,93.20
2022-08-12T03:02:33.043Z,93.50
2022-08-12T03:05:03.567Z,93.70
2022-08-12T03:07:59.201Z,94.10
2022-08-12T03:10:37.349Z,94.30
2022-08-12T03:13:07.560Z,95.20
2022-08-12T03:15:36.003Z,95.30
2022-08-12T03:18:24.878Z,95.70
2022-08-12T03:20:56.985Z,96.20
2022-08-12T03:23:29.617Z,96.40
2022-08-12T03:26:02.838Z,96.50
2022-08-12T03:28:50.527Z,96.80
2022-08-12T03:31:24.604Z,97.30
2022-08-12T03:34:00.628Z,97.60
2022-08-12T03:36:35.366Z,98.10
2022-08-12T03:39:36.046Z,98.70
2022-08-12T03:42:24.182Z,99.20
2022-08-12T03:45:35.057Z,99.90
2022-08-12T03:48:35.836Z,99.90
2022-08-12T03:51:21.812Z,99.90
2022-08-12T03:54:11.090Z,99.90
2022-08-12T03:56:57.532Z,99.90
2022-08-12T03:59:42.978Z,99.90
2022-08-12T04:02:15.044Z,99.90
2022-08-12T04:04:45.729Z,99.90
2022-08-12T04:07:14.743Z,99.90
2022-08-12T04:09:44.078Z,99.90
2022-08-12T04:12:32.714Z,99.90
2022-08-12T04:15:01.493Z,99.90
2022-08-12T04:17:29.066Z,99.90
2022-08-12T04:19:58.119Z,99.90
2022-08-12T04:22:30.842Z,99.90
2022-08-12T04:25:01.426Z,99.90
2022-08-12T04:27:31.515Z,99.90
2022-08-12T04:30:29.263Z,99.90
2022-08-12T04:32:48.633Z,99.90
2022-08-12T04:35:16.870Z,99.90
2022-08-12T04:37:58.953Z,99.90
2022-08-12T04:40:30.410Z,99.90
2022-08-12T04:42:58.322Z,99.90
2022-08-12T04:45:25.352Z,99.90
2022-08-12T04:47:52.901Z,99.90
2022-08-12T04:50:34.036Z,99.90
2022-08-12T04:53:02.871Z,99.90
2022-08-12T04:55:30.579Z,99.90
2022-08-12T04:57:57.486Z,99.90
2022-08-12T05:00:24.739Z,99.90
2022-08-12T05:02:52.463Z,99.90
2022-08-12T05:05:23.361Z,99.90
2022-08-12T05:07:54.897Z,99.90
2022-08-12T05:10:33.459Z,99.90
2022-08-12T05:13:08.442Z,99.90
2022-08-12T05:16:04.885Z,99.90
2022-08-12T05:18:25.572Z,99.90
2022-08-12T05:20:59.265Z,99.90
2022-08-12T05:23:28.014Z,99.90
2022-08-12T05:25:57.144Z,99.90
2022-08-12T05:28:27.339Z,99.90
2022-08-12T05:30:56.493Z,99.90
2022-08-12T05:33:33.292Z,99.90
2022-08-12T05:36:00.136Z,99.90
2022-08-12T05:38:45.560Z,99.90
2022-08-12T05:41:21.321Z,99.90
2022-08-12T05:43:59.828Z,99.90
2022-08-12T05:46:28.926Z,99.90
2022-08-12T05:48:56.814Z,99.90
2022-08-12T05:51:39.800Z,99.90
2022-08-12T05:54:09.719Z,99.90
2022-08-12T05:56:37.212Z,99.90
2022-08-12T05:59:10.153Z,99.90
2022-08-12T06:02:09.752Z,99.90
2022-08-12T06:04:25.494Z,99.90
2022-08-12T06:06:53.735Z,99.90
2022-08-12T06:09:44.681Z,99.90
2022-08-12T06:12:12.034Z,99.90
2022-08-12T06:14:39.380Z,99.90
2022-08-12T06:17:09.040Z,99.90
2022-08-12T06:20:25.684Z,99.90
2022-08-12T06:22:24.496Z,99.90
2022-08-12T06:24:53.549Z,99.90
2022-08-12T06:27:21.589Z,99.90
2022-08-12T06:30:08.177Z,99.90
2022-08-12T06:32:35.704Z,99.90
2022-08-12T06:35:26.844Z,99.90
2022-08-12T06:37:56.971Z,99.90
2022-08-12T06:40:43.809Z,99.90
2022-08-12T06:43:11.135Z,99.90
2022-08-12T06:45:47.370Z,99.90
2022-08-12T06:48:14.525Z,99.90
2022-08-12T06:50:42.511Z,99.90
2022-08-12T06:53:11.276Z,99.90
2022-08-12T06:55:56.702Z,99.90
2022-08-12T06:58:25.758Z,99.90
2022-08-12T07:00:54.666Z,99.90
2022-08-12T07:03:27.739Z,99.90
2022-08-12T07:06:06.188Z,99.90
2022-08-12T07:08:35.193Z,99.90
2022-08-12T07:11:09.540Z,99.90
2022-08-12T07:14:11.262Z,99.90
2022-08-12T07:16:49.793Z,99.90
2022-08-12T07:19:17.308Z,99.90
2022-08-12T07:21:59.843Z,99.90
2022-08-12T07:24:30.066Z,99.90
2022-08-12T07:26:57.096Z,99.90
2022-08-12T07:29:58.359Z,99.90
2022-08-12T07:32:13.258Z,99.90
2022-08-12T07:34:43.405Z,99.90
2022-08-12T07:37:13.309Z,99.90
2022-08-12T07:39:51.363Z,99.90
2022-08-12T07:42:26.696Z,99.90
2022-08-12T07:44:54.050Z,99.90
2022-08-12T07:47:21.328Z,99.90
2022-08-12T07:50:05.804Z,99.90
2022-08-12T07:52:43.194Z,99.90
2022-08-12T07:55:12.267Z,99.90
2022-08-12T07:57:56.000Z,99.90
2022-08-12T08:00:23.867Z,99.90
2022-08-12T08:02:53.499Z,99.90
2022-08-12T08:05:25.739Z,99.90
2022-08-12T08:07:53.704Z,99.90
2022-08-12T08:10:21.157Z,99.90
2022-08-12T08:12:54.096Z,99.90
2022-08-12T08:15:38.493Z,99.90
2022-08-12T08:18:11.610Z,99.40
2022-08-12T08:20:41.609Z,99.20
2022-08-12T08:23:15.410Z,97.90
2022-08-12T08:25:42.887Z,98.20
2022-08-12T08:28:13.160Z,97.60
2022-08-12T08:30:46.400Z,97.40
2022-08-12T08:33:22.972Z,96.10
2022-08-12T08:36:03.015Z,96.30
2022-08-12T08:38:33.086Z,95.50
2022-08-12T08:42:15.825Z,95.00
2022-08-12T08:44:11.431Z,94.90
2022-08-12T08:46:44.610Z,93.70
2022-08-12T08:49:12.477Z,93.20
2022-08-12T08:51:39.977Z,92.80
2022-08-12T08:54:08.926Z,92.00
2022-08-12T08:56:46.637Z,91.00
2022-08-12T08:59:14.530Z,90.50
2022-08-12T09:01:44.436Z,90.10
2022-08-12T09:05:11.779Z,88.80
2022-08-12T09:10:01.905Z,86.30
2022-08-12T09:12:54.284Z,85.40
2022-08-12T09:15:35.594Z,84.10
2022-08-12T09:18:08.711Z,83.70
2022-08-12T09:20:37.057Z,82.10
2022-08-12T09:24:00.568Z,81.70
2022-08-12T09:25:56.784Z,79.90
2022-08-12T09:28:31.443Z,80.40
2022-08-12T09:30:59.565Z,78.10
2022-08-12T09:34:28.172Z,77.00
2022-08-12T09:36:31.400Z,75.30
2022-08-12T09:40:04.554Z,77.30
2022-08-12T09:42:38.930Z,76.20
2022-08-12T09:45:24.584Z,74.40
2022-08-12T09:48:10.199Z,73.50
2022-08-12T09:50:51.917Z,71.90
2022-08-12T09:53:36.098Z,72.20
2022-08-12T09:56:57.301Z,73.30
2022-08-12T09:59:00.010Z,71.30
2022-08-12T10:01:34.934Z,70.40
2022-08-12T10:04:05.648Z,69.90
2022-08-12T10:06:36.019Z,69.40
2022-08-12T10:09:08.660Z,70.00
2022-08-12T10:12:10.544Z,68.40
2022-08-12T10:14:50.059Z,68.20
2022-08-12T10:17:22.873Z,67.50
2022-08-12T10:19:53.073Z,66.30
2022-08-12T10:22:40.398Z,64.60
2022-08-12T10:26:18.494Z,64.50
2022-08-12T10:28:38.347Z,64.60
2022-08-12T10:31:06.460Z,64.60
2022-08-12T10:33:55.148Z,65.30
2022-08-12T10:36:36.246Z,64.20
2022-08-12T10:40:00.176Z,63.40
2022-08-12T10:42:14.722Z,62.40
2022-08-12T10:44:41.906Z,62.20
2022-08-12T10:47:25.951Z,61.70
2022-08-12T10:50:05.571Z,62.10
2022-08-12T10:52:41.525Z,61.40
2022-08-12T10:55:13.430Z,60.10
2022-08-12T10:58:14.491Z,60.30
2022-08-12T11:00:34.705Z,60.60
2022-08-12T11:04:28.005Z,60.10
2022-08-12T11:07:07.719Z,60.30
2022-08-12T11:08:46.304Z,60.00
2022-08-12T11:12:35.215Z,59.50
2022-08-12T11:14:13.051Z,58.60
2022-08-12T11:17:42.954Z,59.50
2022-08-12T11:20:02.181Z,58.50
2022-08-12T11:22:29.935Z,58.90
2022-08-12T11:24:59.934Z,58.30
2022-08-12T11:27:29.524Z,58.20
2022-08-12T11:30:02.000Z,58.50
2022-08-12T11:32:39.132Z,59.00
2022-08-12T11:35:07.247Z,59.00
2022-08-12T11:37:37.928Z,58.90
2022-08-12T11:40:23.275Z,57.80
2022-08-12T11:42:50.877Z,57.60
2022-08-12T11:45:19.763Z,57.80
2022-08-12T11:47:47.084Z,56.80
2022-08-12T11:50:19.187Z,58.00
2022-08-12T11:52:56.477Z,58.20
2022-08-12T11:55:25.453Z,57.50
2022-08-12T11:58:07.411Z,57.20
2022-08-12T12:03:43.666Z,57.00
2022-08-12T12:06:18.208Z,57.10
2022-08-12T12:08:51.104Z,56.60
2022-08-12T12:11:19.793Z,56.20
2022-08-12T12:14:07.630Z,56.20
2022-08-12T12:16:38.439Z,56.10
2022-08-12T12:19:07.426Z,56.20
2022-08-12T12:21:48.695Z,56.00
2022-08-12T12:24:22.005Z,54.70
2022-08-12T12:26:59.477Z,54.90
2022-08-12T12:30:18.217Z,54.70
2022-08-12T12:32:29.387Z,54.00
2022-08-12T12:35:14.113Z,54.90
2022-08-12T12:38:04.023Z,53.90
2022-08-12T12:40:39.812Z,54.10
2022-08-12T12:43:07.756Z,54.50
2022-08-12T12:45:37.033Z,54.70
2022-08-12T12:48:07.831Z,54.10
2022-08-12T12:50:45.497Z,54.30
2022-08-12T12:54:08.846Z,54.40
2022-08-12T12:56:33.815Z,55.10
2022-08-12T12:59:03.432Z,53.40
2022-08-12T13:01:33.067Z,53.40
2022-08-12T13:04:02.983Z,53.80
2022-08-12T13:06:31.480Z,54.00
2022-08-12T13:09:02.461Z,53.30
2022-08-12T13:11:41.268Z,54.20
2022-08-12T13:14:28.035Z,53.30
2022-08-12T13:16:57.477Z,52.50
2022-08-12T13:19:38.743Z,52.00
2022-08-12T13:22:18.813Z,53.30
2022-08-12T13:24:51.911Z,53.30
2022-08-12T13:27:21.802Z,53.10
2022-08-12T13:29:48.806Z,53.40
2022-08-12T13:32:19.874Z,52.20
2022-08-12T13:35:04.160Z,52.60
2022-08-12T13:37:43.992Z,52.40
2022-08-12T13:40:18.834Z,53.00
2022-08-12T13:42:48.224Z,53.30
2022-08-12T13:45:18.067Z,53.20
2022-08-12T13:48:11.487Z,52.80
2022-08-12T13:50:40.514Z,52.20
2022-08-12T13:53:24.929Z,52.10
2022-08-12T13:56:02.222Z,51.60
2022-08-12T13:58:33.083Z,51.60
2022-08-12T14:01:05.487Z,52.10
2022-08-12T14:03:50.488Z,52.40
2022-08-12T14:06:19.551Z,51.10
2022-08-12T14:08:49.648Z,51.50
2022-08-12T14:11:25.371Z,52.50
2022-08-12T14:14:03.951Z,50.90
2022-08-12T14:16:49.172Z,50.50
2022-08-12T14:19:24.125Z,50.60
2022-08-12T14:22:01.462Z,50.20
2022-08-12T14:24:40.616Z,49.60
2022-08-12T14:27:10.436Z,49.30
2022-08-12T14:30:04.142Z,51.00
2022-08-12T14:32:35.537Z,50.70
2022-08-12T14:35:06.575Z,50.00
2022-08-12T14:37:57.864Z,50.10
2022-08-12T14:40:29.561Z,50.70
2022-08-12T14:42:58.199Z,50.10
2022-08-12T14:45:37.209Z,50.60
2022-08-12T14:48:14.827Z,51.30
2022-08-12T14:51:07.578Z,50.30
2022-08-12T14:59:56.710Z,50.40
2022-08-12T15:02:17.160Z,50.60
2022-08-12T15:04:45.319Z,50.20
2022-08-12T15:07:34.414Z,50.10
2022-08-12T15:10:01.625Z,50.40
2022-08-12T15:12:31.864Z,50.20
2022-08-12T15:15:00.357Z,51.30
2022-08-12T15:17:37.873Z,51.00
2022-08-12T15:20:32.773Z,50.60
2022-08-12T15:23:06.046Z,51.10
2022-08-12T15:25:47.813Z,50.30
2022-08-12T15:28:22.294Z,50.90
2022-08-12T15:30:53.682Z,51.00
2022-08-12T15:33:24.348Z,50.20
2022-08-12T15:35:53.877Z,50.30
2022-08-12T15:38:25.366Z,50.10
2022-08-12T15:40:54.278Z,49.80
2022-08-12T15:43:51.778Z,49.80
2022-08-12T15:46:15.932Z,49.60
2022-08-12T15:48:46.906Z,49.10
2022-08-12T15:51:58.666Z,49.10
2022-08-12T15:54:33.221Z,49.40
2022-08-12T15:57:08.067Z,49.10
2022-08-12T16:00:00.540Z,50.00
2022-08-12T16:02:26.995Z,50.40
2022-08-12T16:04:56.730Z,50.00
2022-08-12T16:07:29.766Z,50.20
2022-08-12T16:10:05.942Z,50.30
2022-08-12T16:12:55.075Z,50.40
2022-08-12T16:15:26.485Z,50.30
2022-08-12T16:18:19.673Z,50.40
2022-08-12T16:20:46.707Z,50.40
2022-08-12T16:23:36.252Z,50.10
2022-08-12T16:26:14.904Z,50.00
2022-08-12T16:28:47.374Z,50.40
2022-08-12T16:31:22.705Z,50.20
2022-08-12T16:33:58.633Z,50.50
2022-08-12T16:36:29.190Z,50.80
2022-08-12T16:38:56.643Z,49.90
2022-08-12T16:41:24.415Z,50.10
2022-08-12T16:43:55.488Z,50.20
2022-08-12T16:46:33.595Z,51.10
2022-08-12T16:49:08.564Z,51.60
2022-08-12T16:51:41.844Z,51.60
2022-08-12T16:54:14.119Z,52.20
2022-08-12T16:56:55.336Z,52.10
2022-08-12T16:59:53.548Z,52.10
2022-08-12T17:02:31.598Z,52.20
2022-08-12T17:05:03.762Z,52.40
2022-08-12T17:07:36.985Z,53.00
2022-08-12T17:10:09.646Z,53.50
2022-08-12T17:12:40.195Z,53.40
2022-08-12T17:15:51.274Z,53.50
2022-08-12T17:18:15.485Z,53.30
2022-08-12T17:20:47.545Z,53.90
2022-08-12T17:23:17.098Z,54.20
2022-08-12T17:25:46.366Z,54.20
2022-08-12T17:28:17.338Z,54.30
2022-08-12T17:30:45.504Z,54.30
2022-08-12T17:33:25.341Z,54.80
2022-08-12T17:35:53.417Z,54.80
2022-08-12T17:38:21.228Z,54.90
2022-08-12T17:40:48.995Z,54.80
2022-08-12T17:43:57.933Z,55.30
2022-08-12T17:46:13.218Z,55.50
2022-08-12T17:48:54.798Z,55.50
2022-08-12T17:51:24.594Z,55.50
2022-08-12T17:54:12.401Z,55.80
2022-08-12T17:56:43.175Z,55.80
2022-08-12T17:59:12.620Z,55.60
2022-08-12T18:01:45.479Z,55.60
2022-08-12T18:04:21.557Z,56.00
2022-08-12T18:06:52.474Z,56.10
2022-08-12T18:09:22.062Z,56.10
2022-08-12T18:12:12.895Z,56.50
2022-08-12T18:14:41.703Z,56.20
2022-08-12T18:17:18.184Z,56.20
2022-08-12T18:20:05.808Z,56.10
2022-08-12T18:22:46.993Z,56.40
2022-08-12T18:26:12.715Z,56.50
2022-08-12T18:28:28.997Z,56.90
2022-08-12T18:31:03.081Z,57.30
2022-08-12T18:33:43.873Z,57.50
2022-08-12T18:36:14.615Z,57.50
2022-08-12T18:38:56.144Z,57.70
2022-08-12T18:41:36.122Z,58.00
2022-08-12T18:44:12.281Z,57.90
2022-08-12T18:46:53.656Z,58.10
2022-08-12T18:49:39.442Z,58.30
2022-08-12T18:52:11.355Z,58.50
2022-08-12T18:54:52.927Z,58.90
2022-08-12T18:58:06.090Z,59.10
2022-08-12T19:00:20.903Z,59.30
2022-08-12T19:02:50.903Z,59.00
2022-08-12T19:05:18.240Z,59.30
2022-08-12T19:08:00.593Z,59.80
2022-08-12T19:10:32.127Z,60.10
2022-08-12T19:13:23.456Z,60.40
2022-08-12T19:15:58.045Z,60.80
2022-08-12T19:18:31.076Z,61.10
2022-08-12T19:21:06.586Z,61.10
2022-08-12T19:23:39.688Z,61.40
2022-08-12T19:26:10.823Z,61.90
2022-08-12T19:28:40.669Z,62.10
2022-08-12T19:31:55.335Z,62.40
2022-08-12T19:37:27.456Z,62.30
2022-08-12T19:40:31.286Z,62.70
2022-08-12T19:43:01.079Z,63.00
2022-08-12T19:45:43.755Z,63.30
2022-08-12T19:48:18.903Z,63.20
2022-08-12T19:50:50.439Z,63.50
2022-08-12T19:53:23.859Z,63.40
2022-08-12T19:55:57.292Z,63.60
2022-08-12T19:58:25.364Z,63.70
2022-08-12T20:00:55.450Z,63.90
2022-08-12T20:03:39.593Z,63.90
2022-08-12T20:06:21.876Z,64.20
2022-08-12T20:08:56.688Z,64.40
2022-08-12T20:12:14.507Z,64.60
2022-08-12T20:14:19.696Z,64.90
2022-08-12T20:16:52.663Z,65.20
2022-08-12T20:19:28.622Z,65.40
2022-08-12T20:22:16.768Z,65.50
2022-08-12T20:24:51.637Z,65.50
2022-08-12T20:27:29.348Z,66.00
2022-08-12T20:30:13.195Z,65.70
2022-08-12T20:32:51.312Z,66.00
2022-08-12T20:35:24.338Z,66.00
2022-08-12T20:38:07.325Z,66.20
2022-08-12T20:40:40.295Z,67.10
2022-08-12T20:43:08.575Z,67.30
2022-08-12T20:45:44.913Z,67.10
2022-08-12T20:48:19.675Z,67.80
2022-08-12T20:50:53.550Z,67.30
2022-08-12T20:53:27.693Z,67.90
2022-08-12T20:56:31.265Z,68.40
2022-08-12T20:59:01.448Z,68.20
2022-08-12T21:01:47.248Z,68.50
2022-08-12T21:04:36.987Z,68.50
2022-08-12T21:07:08.333Z,68.80
2022-08-12T21:09:41.927Z,68.90
2022-08-12T21:12:28.089Z,69.20
2022-08-12T21:15:24.308Z,69.60
2022-08-12T21:18:00.579Z,69.80
2022-08-12T21:20:35.011Z,70.00
2022-08-12T21:23:06.093Z,70.20
2022-08-12T21:25:44.188Z,70.40
2022-08-12T21:28:19.118Z,70.20
2022-08-12T21:31:11.298Z,70.60
2022-08-12T21:33:58.446Z,70.90
2022-08-12T21:36:34.556Z,71.10
2022-08-12T21:39:21.053Z,71.00
2022-08-12T21:41:52.015Z,71.30
2022-08-12T21:45:43.815Z,71.60
2022-08-12T21:47:21.037Z,71.60
2022-08-12T21:50:11.939Z,72.00
2022-08-12T21:52:42.149Z,72.00
2022-08-12T21:55:19.206Z,72.10
2022-08-12T21:57:53.307Z,72.40
2022-08-12T22:00:33.175Z,73.10
2022-08-12T22:04:03.023Z,73.50
2022-08-12T22:06:26.491Z,73.80
2022-08-12T22:09:09.028Z,74.20
2022-08-12T22:11:56.129Z,74.70
2022-08-12T22:14:28.081Z,74.00
2022-08-12T22:16:56.246Z,74.10
2022-08-12T22:19:23.531Z,74.20
2022-08-12T22:21:55.732Z,74.30
2022-08-12T22:24:26.829Z,74.10
2022-08-12T22:27:08.062Z,74.00
2022-08-12T22:30:08.939Z,74.20
2022-08-12T22:32:50.431Z,74.50
2022-08-12T22:35:55.914Z,74.60
2022-08-12T22:38:25.360Z,74.80
2022-08-12T22:41:01.966Z,74.80
2022-08-12T22:44:01.182Z,74.90
2022-08-12T22:46:32.856Z,75.10
2022-08-12T22:49:00.346Z,75.30
2022-08-12T22:52:00.227Z,75.60
2022-08-12T22:54:36.319Z,75.80
2022-08-12T22:57:05.417Z,75.80
2022-08-12T22:59:55.829Z,76.20
2022-08-12T23:02:30.165Z,76.00
2022-08-12T23:04:58.094Z,76.70
2022-08-12T23:07:25.091Z,76.70
2022-08-12T23:09:52.513Z,77.50
2022-08-12T23:12:46.422Z,77.50
2022-08-12T23:15:14.621Z,77.70
2022-08-12T23:17:41.866Z,77.50
2022-08-12T23:20:11.087Z,77.80
2022-08-12T23:22:38.739Z,78.40
2022-08-12T23:25:19.055Z,78.30
2022-08-12T23:28:30.071Z,78.50
2022-08-12T23:31:04.234Z,78.80
2022-08-12T23:34:00.797Z,78.90
2022-08-12T23:36:29.737Z,78.60
2022-08-12T23:40:13.370Z,78.90
2022-08-12T23:42:17.443Z,78.70
2022-08-12T23:44:43.849Z,79.00
2022-08-12T23:47:11.717Z,78.80
2022-08-12T23:49:58.952Z,79.40
2022-08-12T23:52:34.672Z,79.50
2022-08-12T23:55:23.787Z,79.60
2022-08-12T23:58:20.693Z,79.60
